createdAt,value
2019-02-09T00:00:37.499Z,8.30
2019-02-09T00:03:08.204Z,8.40
2019-02-09T00:05:37.104Z,8.30
2019-02-09T00:08:07.847Z,8.30
2019-02-09T00:10:36.821Z,8.30
2019-02-09T00:13:05.558Z,8.20
2019-02-09T00:15:35.619Z,8.20
2019-02-09T00:18:05.300Z,8.30
2019-02-09T00:20:34.323Z,8.20
2019-02-09T00:23:03.084Z,8.20
2019-02-09T00:25:32.249Z,8.20
2019-02-09T00:28:00.809Z,8.20
2019-02-09T00:30:29.730Z,8.20
2019-02-09T00:32:58.449Z,8.20
2019-02-09T00:35:27.000Z,8.10
2019-02-09T00:37:55.508Z,8.10
2019-02-09T00:40:28.748Z,8.20
2019-02-09T00:42:57.649Z,8.10
2019-02-09T00:45:27.547Z,8.10
2019-02-09T00:47:56.260Z,8.10
2019-02-09T00:50:25.149Z,8.10
2019-02-09T00:52:53.793Z,8.10
2019-02-09T00:55:24.858Z,8.10
2019-02-09T00:57:53.487Z,8.10
2019-02-09T01:00:25.297Z,8.10
2019-02-09T01:02:53.939Z,8.10
2019-02-09T01:05:31.329Z,8.10
2019-02-09T01:07:59.911Z,8.10
2019-02-09T01:10:30.313Z,8.20
2019-02-09T01:12:59.118Z,8.20
2019-02-09T01:15:27.949Z,8.20
2019-02-09T01:17:56.964Z,8.20
2019-02-09T01:20:27.454Z,8.10
2019-02-09T01:22:57.456Z,8.20
2019-02-09T01:25:26.639Z,8.20
2019-02-09T01:27:55.755Z,8.10
2019-02-09T01:30:28.884Z,8.10
2019-02-09T01:32:58.176Z,8.00
2019-02-09T01:35:27.095Z,8.00
2019-02-09T01:37:55.726Z,8.00
2019-02-09T01:40:28.328Z,8.00
2019-02-09T01:42:57.339Z,8.00
2019-02-09T01:45:32.841Z,8.00
2019-02-09T01:48:01.572Z,8.10
2019-02-09T01:50:32.662Z,8.10
2019-02-09T01:53:01.653Z,8.10
2019-02-09T01:55:30.397Z,8.10
2019-02-09T01:58:00.460Z,8.00
2019-02-09T02:00:36.759Z,8.00
2019-02-09T02:03:05.862Z,8.00
2019-02-09T02:05:34.916Z,8.00
2019-02-09T02:08:03.512Z,8.00
2019-02-09T02:10:34.339Z,8.00
2019-02-09T02:13:03.038Z,8.00
2019-02-09T02:15:32.256Z,8.00
2019-02-09T02:18:01.407Z,8.00
2019-02-09T02:20:31.906Z,8.00
2019-02-09T02:23:00.891Z,8.00
2019-02-09T02:25:29.617Z,8.00
2019-02-09T02:27:58.351Z,8.00
2019-02-09T02:30:29.464Z,8.10
2019-02-09T02:32:58.485Z,8.10
2019-02-09T02:35:27.192Z,8.10
2019-02-09T02:37:55.828Z,8.20
2019-02-09T02:40:24.706Z,8.10
2019-02-09T02:42:53.486Z,8.20
2019-02-09T02:45:24.005Z,8.20
2019-02-09T02:47:53.270Z,8.10
2019-02-09T02:50:25.427Z,8.10
2019-02-09T02:52:54.048Z,8.20
2019-02-09T02:55:30.417Z,8.20
2019-02-09T02:58:00.451Z,8.20
2019-02-09T03:00:34.075Z,8.20
2019-02-09T03:03:03.471Z,8.20
2019-02-09T03:05:37.552Z,8.30
2019-02-09T03:08:06.596Z,8.30
2019-02-09T03:10:48.490Z,8.20
2019-02-09T03:13:19.802Z,8.30
2019-02-09T03:15:52.326Z,8.30
2019-02-09T03:18:25.222Z,8.30
2019-02-09T03:20:57.348Z,8.30
2019-02-09T03:23:26.088Z,8.30
2019-02-09T03:26:09.991Z,8.40
2019-02-09T03:28:38.992Z,8.40
2019-02-09T03:31:10.672Z,8.40
2019-02-09T03:33:43.948Z,8.30
2019-02-09T03:36:15.838Z,8.30
2019-02-09T03:38:44.946Z,8.30
2019-02-09T03:41:13.753Z,8.30
2019-02-09T03:43:44.044Z,8.30
2019-02-09T03:46:18.536Z,8.30
2019-02-09T03:48:55.010Z,8.30
2019-02-09T03:51:24.047Z,8.40
2019-02-09T03:53:53.086Z,8.30
2019-02-09T03:56:24.675Z,8.40
2019-02-09T03:58:54.770Z,8.40
2019-02-09T04:01:24.041Z,8.30
2019-02-09T04:03:54.842Z,8.40
2019-02-09T04:06:43.414Z,8.40
2019-02-09T04:09:15.685Z,8.40
2019-02-09T04:11:45.015Z,8.40
2019-02-09T04:14:13.952Z,8.40
2019-02-09T04:16:46.238Z,8.50
2019-02-09T04:19:15.245Z,8.50
2019-02-09T04:21:45.953Z,8.50
2019-02-09T04:24:18.666Z,8.60
2019-02-09T04:26:53.024Z,8.60
2019-02-09T04:29:21.613Z,8.60
2019-02-09T04:31:51.407Z,8.60
2019-02-09T04:34:20.216Z,8.60
2019-02-09T04:36:48.838Z,8.60
2019-02-09T04:39:17.849Z,8.60
2019-02-09T04:41:46.438Z,8.60
2019-02-09T04:44:15.421Z,8.60
2019-02-09T04:46:44.240Z,8.60
2019-02-09T04:49:12.875Z,8.60
2019-02-09T04:51:44.525Z,8.60
2019-02-09T04:54:15.101Z,8.60
2019-02-09T04:56:43.984Z,8.60
2019-02-09T04:59:13.087Z,8.50
2019-02-09T05:01:42.287Z,8.50
2019-02-09T05:04:11.005Z,8.50
2019-02-09T05:06:40.293Z,8.50
2019-02-09T05:09:09.150Z,8.50
2019-02-09T05:11:37.949Z,8.50
2019-02-09T05:14:06.933Z,8.50
2019-02-09T05:16:35.787Z,8.50
2019-02-09T05:19:04.603Z,8.50
2019-02-09T05:21:34.879Z,8.50
2019-02-09T05:24:03.654Z,8.50
2019-02-09T05:26:32.369Z,8.50
2019-02-09T05:29:01.085Z,8.40
2019-02-09T05:31:29.774Z,8.40
2019-02-09T05:34:01.037Z,8.40
2019-02-09T05:36:29.789Z,8.40
2019-02-09T05:39:02.046Z,8.40
2019-02-09T05:41:42.597Z,8.40
2019-02-09T05:44:13.128Z,8.40
2019-02-09T05:46:44.477Z,8.40
2019-02-09T05:49:15.470Z,8.40
2019-02-09T05:51:44.390Z,8.40
2019-02-09T05:54:14.736Z,8.40
2019-02-09T05:56:47.296Z,8.40
2019-02-09T05:59:18.899Z,8.40
2019-02-09T06:01:47.495Z,8.40
2019-02-09T06:04:16.183Z,8.40
2019-02-09T06:06:47.692Z,8.50
2019-02-09T06:09:16.788Z,8.50
2019-02-09T06:11:51.334Z,8.50
2019-02-09T06:14:22.027Z,8.50
2019-02-09T06:16:51.003Z,8.60
2019-02-09T06:19:22.674Z,8.60
2019-02-09T06:21:51.592Z,8.60
2019-02-09T06:24:21.101Z,8.60
2019-02-09T06:26:50.615Z,8.70
2019-02-09T06:29:22.487Z,8.70
2019-02-09T06:31:55.435Z,8.70
2019-02-09T06:34:24.589Z,8.60
2019-02-09T06:36:55.153Z,8.60
2019-02-09T06:39:25.627Z,8.60
2019-02-09T06:42:00.429Z,8.60
2019-02-09T06:44:29.818Z,8.60
2019-02-09T06:47:04.480Z,8.60
2019-02-09T06:49:36.437Z,8.60
2019-02-09T06:52:07.755Z,8.60
2019-02-09T06:54:38.971Z,8.60
2019-02-09T06:57:07.694Z,8.60
2019-02-09T06:59:38.047Z,8.60
2019-02-09T07:02:06.992Z,8.60
2019-02-09T07:04:36.073Z,8.60
2019-02-09T07:07:05.614Z,8.70
2019-02-09T07:09:38.727Z,8.70
2019-02-09T07:12:16.272Z,8.70
2019-02-09T07:14:47.288Z,8.70
2019-02-09T07:17:20.361Z,8.80
2019-02-09T07:19:49.316Z,8.80
2019-02-09T07:22:19.524Z,8.70
2019-02-09T07:24:51.128Z,8.70
2019-02-09T07:27:22.563Z,8.70
2019-02-09T07:29:51.467Z,8.60
2019-02-09T07:32:24.787Z,8.60
2019-02-09T07:34:53.492Z,8.60
2019-02-09T07:37:22.252Z,8.60
2019-02-09T07:39:50.946Z,8.60
2019-02-09T07:42:22.888Z,8.50
2019-02-09T07:44:57.473Z,8.50
2019-02-09T07:47:27.453Z,8.50
2019-02-09T07:49:59.270Z,8.40
2019-02-09T07:52:27.852Z,8.50
2019-02-09T07:54:59.478Z,8.50
2019-02-09T07:57:29.220Z,8.50
2019-02-09T08:00:01.240Z,8.50
2019-02-09T08:02:30.069Z,8.40
2019-02-09T08:04:58.574Z,8.50
2019-02-09T08:07:27.061Z,8.70
2019-02-09T08:09:55.659Z,8.70
2019-02-09T08:12:24.347Z,8.80
2019-02-09T08:14:53.317Z,8.80
2019-02-09T08:17:21.942Z,8.90
2019-02-09T08:19:50.589Z,9.00
2019-02-09T08:22:19.579Z,9.20
2019-02-09T08:24:48.587Z,9.20
2019-02-09T08:27:23.412Z,9.30
2019-02-09T08:29:47.740Z,9.80
2019-02-09T08:32:16.716Z,10.20
2019-02-09T08:34:45.396Z,10.40
2019-02-09T08:37:14.143Z,11.00
2019-02-09T08:39:42.951Z,11.40
2019-02-09T08:42:11.894Z,11.80
2019-02-09T08:44:40.607Z,12.00
2019-02-09T08:47:09.238Z,11.80
2019-02-09T08:49:37.940Z,11.40
2019-02-09T08:52:06.563Z,10.90
2019-02-09T08:54:35.517Z,10.60
2019-02-09T08:57:04.210Z,10.40
2019-02-09T08:59:32.699Z,10.20
2019-02-09T09:02:01.481Z,10.00
2019-02-09T09:04:30.247Z,10.00
2019-02-09T09:06:58.781Z,9.90
2019-02-09T09:09:27.381Z,10.00
2019-02-09T09:11:55.975Z,10.00
2019-02-09T09:14:24.461Z,9.90
2019-02-09T09:16:53.439Z,9.90
2019-02-09T09:19:22.527Z,9.80
2019-02-09T09:21:51.498Z,9.80
2019-02-09T09:24:20.084Z,9.90
2019-02-09T09:26:48.755Z,10.00
2019-02-09T09:29:17.496Z,10.10
2019-02-09T09:31:46.258Z,10.10
2019-02-09T09:34:15.461Z,10.00
2019-02-09T09:36:44.323Z,9.90
2019-02-09T09:39:13.084Z,9.90
2019-02-09T09:41:41.819Z,9.80
2019-02-09T09:44:10.540Z,9.80
2019-02-09T09:46:39.162Z,9.80
2019-02-09T09:49:07.970Z,9.80
2019-02-09T09:51:36.827Z,9.80
2019-02-09T09:54:07.260Z,9.80
2019-02-09T09:56:35.967Z,9.90
2019-02-09T09:59:04.938Z,9.90
2019-02-09T10:01:33.780Z,9.90
2019-02-09T10:04:02.946Z,10.00
2019-02-09T10:06:31.796Z,10.00
2019-02-09T10:09:00.345Z,10.10
2019-02-09T10:11:29.131Z,10.20
2019-02-09T10:13:58.313Z,10.30
2019-02-09T10:16:27.431Z,10.30
2019-02-09T10:18:56.189Z,10.40
2019-02-09T10:21:24.980Z,10.40
2019-02-09T10:23:53.905Z,10.40
2019-02-09T10:26:22.730Z,10.50
2019-02-09T10:28:51.454Z,10.50
2019-02-09T10:31:20.250Z,10.50
2019-02-09T10:33:48.985Z,10.50
2019-02-09T10:36:17.983Z,10.40
2019-02-09T10:38:46.999Z,10.40
2019-02-09T10:41:16.292Z,10.40
2019-02-09T10:43:45.551Z,10.40
2019-02-09T10:46:14.814Z,10.50
2019-02-09T10:48:43.689Z,10.60
2019-02-09T10:51:12.278Z,10.50
2019-02-09T10:53:40.965Z,10.40
2019-02-09T10:56:09.975Z,10.30
2019-02-09T10:58:38.862Z,10.20
2019-02-09T11:01:10.899Z,10.20
2019-02-09T11:03:39.773Z,10.20
2019-02-09T11:06:09.068Z,10.30
2019-02-09T11:08:37.847Z,10.40
2019-02-09T11:11:06.746Z,10.50
2019-02-09T11:13:35.627Z,10.40
2019-02-09T11:16:04.473Z,10.40
2019-02-09T11:18:33.404Z,10.40
2019-02-09T11:21:02.634Z,10.50
2019-02-09T11:23:31.421Z,10.60
2019-02-09T11:26:00.171Z,10.70
2019-02-09T11:28:29.423Z,10.80
2019-02-09T11:30:58.322Z,10.90
2019-02-09T11:33:27.202Z,11.00
2019-02-09T11:35:56.065Z,11.10
2019-02-09T11:38:24.880Z,11.20
2019-02-09T11:40:53.900Z,11.10
2019-02-09T11:43:23.068Z,11.20
2019-02-09T11:45:51.806Z,11.30
2019-02-09T11:48:20.677Z,11.40
2019-02-09T11:50:49.472Z,11.40
2019-02-09T11:53:18.497Z,11.50
2019-02-09T11:55:47.581Z,11.60
2019-02-09T11:58:16.407Z,11.60
2019-02-09T12:00:48.177Z,11.60
2019-02-09T12:03:16.916Z,11.50
2019-02-09T12:05:46.173Z,11.40
2019-02-09T12:08:15.106Z,11.50
2019-02-09T12:10:44.309Z,11.50
2019-02-09T12:13:13.537Z,11.50
2019-02-09T12:15:42.400Z,11.40
2019-02-09T12:18:13.281Z,11.30
2019-02-09T12:20:41.979Z,11.20
2019-02-09T12:23:10.786Z,11.20
2019-02-09T12:25:40.074Z,11.20
2019-02-09T12:28:12.882Z,11.20
2019-02-09T12:30:42.649Z,11.10
2019-02-09T12:33:12.590Z,11.10
2019-02-09T12:35:41.755Z,11.10
2019-02-09T12:38:11.374Z,11.10
2019-02-09T12:40:40.552Z,11.10
2019-02-09T12:43:09.427Z,11.10
2019-02-09T12:45:39.885Z,11.00
2019-02-09T12:48:10.377Z,10.80
2019-02-09T12:50:39.329Z,10.60
2019-02-09T12:53:08.334Z,10.50
2019-02-09T12:55:37.162Z,10.40
2019-02-09T12:58:06.857Z,10.20
2019-02-09T13:00:37.337Z,10.20
2019-02-09T13:03:12.077Z,10.30
2019-02-09T13:05:40.890Z,10.20
2019-02-09T13:08:09.858Z,10.10
2019-02-09T13:10:38.629Z,10.10
2019-02-09T13:13:07.491Z,10.20
2019-02-09T13:15:36.330Z,10.20
2019-02-09T13:18:05.622Z,10.10
2019-02-09T13:20:34.700Z,10.20
2019-02-09T13:23:04.946Z,10.20
2019-02-09T13:25:33.890Z,10.20
2019-02-09T13:28:02.687Z,10.20
2019-02-09T13:30:36.878Z,10.30
2019-02-09T13:33:06.810Z,10.50
2019-02-09T13:35:36.008Z,10.60
2019-02-09T13:38:05.155Z,10.60
2019-02-09T13:40:33.935Z,10.70
2019-02-09T13:43:02.758Z,10.70
2019-02-09T13:45:37.169Z,10.60
2019-02-09T13:48:06.660Z,10.60
2019-02-09T13:50:35.820Z,10.50
2019-02-09T13:53:05.723Z,10.50
2019-02-09T13:55:34.530Z,10.60
2019-02-09T13:58:03.497Z,10.60
2019-02-09T14:00:32.982Z,10.60
2019-02-09T14:03:02.828Z,10.60
2019-02-09T14:05:31.592Z,10.60
2019-02-09T14:08:00.595Z,10.60
2019-02-09T14:10:29.749Z,10.60
2019-02-09T14:12:58.638Z,10.60
2019-02-09T14:15:40.130Z,10.60
2019-02-09T14:18:12.238Z,10.60
2019-02-09T14:20:41.574Z,10.60
2019-02-09T14:23:10.832Z,10.60
2019-02-09T14:25:39.607Z,10.60
2019-02-09T14:28:09.307Z,10.60
2019-02-09T14:30:39.489Z,10.70
2019-02-09T14:33:09.981Z,10.70
2019-02-09T14:35:40.494Z,10.70
2019-02-09T14:38:09.328Z,10.70
2019-02-09T14:40:38.300Z,10.70
2019-02-09T14:43:07.562Z,10.70
2019-02-09T14:45:38.854Z,10.80
2019-02-09T14:48:07.598Z,10.90
2019-02-09T14:50:36.430Z,10.90
2019-02-09T14:53:05.900Z,10.90
2019-02-09T14:55:36.657Z,10.90
2019-02-09T14:58:05.962Z,10.90
2019-02-09T15:00:37.578Z,10.80
2019-02-09T15:03:07.848Z,10.70
2019-02-09T15:05:37.152Z,10.60
2019-02-09T15:08:07.110Z,10.60
2019-02-09T15:10:36.373Z,10.50
2019-02-09T15:13:06.820Z,10.40
2019-02-09T15:15:53.636Z,10.40
2019-02-09T15:18:22.792Z,10.40
2019-02-09T15:20:57.843Z,10.30
2019-02-09T15:23:26.638Z,10.30
2019-02-09T15:25:55.845Z,10.20
2019-02-09T15:28:24.825Z,10.20
2019-02-09T15:30:53.690Z,10.10
2019-02-09T15:33:22.766Z,10.20
2019-02-09T15:35:51.561Z,10.10
2019-02-09T15:38:21.181Z,10.10
2019-02-09T15:40:50.099Z,10.00
2019-02-09T15:43:18.821Z,10.00
2019-02-09T15:45:47.692Z,9.90
2019-02-09T15:48:16.341Z,9.80
2019-02-09T15:50:45.095Z,9.80
2019-02-09T15:53:13.913Z,9.70
2019-02-09T15:55:42.637Z,9.80
2019-02-09T15:58:11.980Z,9.70
2019-02-09T16:00:40.899Z,9.70
2019-02-09T16:03:09.679Z,9.70
2019-02-09T16:05:38.531Z,9.70
2019-02-09T16:08:07.494Z,9.60
2019-02-09T16:10:37.343Z,9.60
2019-02-09T16:13:06.462Z,9.60
2019-02-09T16:15:35.500Z,9.60
2019-02-09T16:18:04.970Z,9.60
2019-02-09T16:20:35.075Z,9.60
2019-02-09T16:23:04.400Z,9.60
2019-02-09T16:25:33.385Z,9.60
2019-02-09T16:28:02.488Z,9.60
2019-02-09T16:30:31.745Z,9.60
2019-02-09T16:33:01.110Z,9.60
2019-02-09T16:35:31.060Z,9.50
2019-02-09T16:37:59.898Z,9.50
2019-02-09T16:40:30.291Z,9.40
2019-02-09T16:42:59.179Z,9.40
2019-02-09T16:45:35.686Z,9.50
2019-02-09T16:48:06.579Z,9.50
2019-02-09T16:50:35.368Z,9.50
2019-02-09T16:53:04.665Z,9.50
2019-02-09T16:55:33.928Z,9.40
2019-02-09T16:58:02.857Z,9.40
2019-02-09T17:00:34.036Z,9.50
2019-02-09T17:03:02.870Z,9.50
2019-02-09T17:05:31.740Z,9.50
2019-02-09T17:08:00.530Z,9.50
2019-02-09T17:10:29.791Z,9.50
2019-02-09T17:12:58.555Z,9.50
2019-02-09T17:15:29.532Z,9.50
2019-02-09T17:17:58.218Z,9.60
2019-02-09T17:20:26.978Z,9.60
2019-02-09T17:22:55.548Z,9.60
2019-02-09T17:25:25.639Z,9.70
2019-02-09T17:27:54.610Z,9.70
2019-02-09T17:30:34.332Z,9.60
2019-02-09T17:33:02.950Z,9.60
2019-02-09T17:35:32.574Z,9.60
2019-02-09T17:38:01.459Z,9.60
2019-02-09T17:40:41.864Z,9.60
2019-02-09T17:43:10.817Z,9.50
2019-02-09T17:45:50.946Z,9.60
2019-02-09T17:48:19.487Z,9.50
2019-02-09T17:50:48.183Z,9.50
2019-02-09T17:53:16.899Z,9.50
2019-02-09T17:55:45.685Z,9.50
2019-02-09T17:58:14.239Z,9.50
2019-02-09T18:00:47.043Z,9.50
2019-02-09T18:03:15.596Z,9.40
2019-02-09T18:05:44.432Z,9.40
2019-02-09T18:08:13.399Z,9.40
2019-02-09T18:10:42.130Z,9.40
2019-02-09T18:13:11.149Z,9.40
2019-02-09T18:15:39.658Z,9.30
2019-02-09T18:18:08.310Z,9.30
2019-02-09T18:20:36.790Z,9.30
2019-02-09T18:23:05.682Z,9.30
2019-02-09T18:25:34.246Z,9.30
2019-02-09T18:28:03.097Z,9.30
2019-02-09T18:30:32.260Z,9.30
2019-02-09T18:33:00.867Z,9.30
2019-02-09T18:35:29.393Z,9.30
2019-02-09T18:37:58.030Z,9.20
2019-02-09T18:40:27.693Z,9.30
2019-02-09T18:42:56.656Z,9.20
2019-02-09T18:45:34.394Z,9.20
2019-02-09T18:48:03.446Z,9.20
2019-02-09T18:50:32.865Z,9.20
2019-02-09T18:53:02.037Z,9.10
2019-02-09T18:55:31.422Z,9.10
2019-02-09T18:58:00.464Z,9.10
2019-02-09T19:00:40.546Z,9.20
2019-02-09T19:03:10.723Z,9.20
2019-02-09T19:05:39.358Z,9.20
2019-02-09T19:08:09.225Z,9.30
2019-02-09T19:10:37.920Z,9.30
2019-02-09T19:13:06.935Z,9.20
2019-02-09T19:15:35.755Z,9.20
2019-02-09T19:18:06.340Z,9.20
2019-02-09T19:20:37.688Z,9.20
2019-02-09T19:23:06.871Z,9.10
2019-02-09T19:25:36.101Z,9.10
2019-02-09T19:28:05.603Z,9.10
2019-02-09T19:30:34.516Z,9.10
2019-02-09T19:33:03.147Z,9.10
2019-02-09T19:35:31.894Z,9.10
2019-02-09T19:38:00.687Z,9.10
2019-02-09T19:40:29.154Z,9.10
2019-02-09T19:42:57.718Z,9.10
2019-02-09T19:45:31.793Z,9.10
2019-02-09T19:48:00.511Z,9.10
2019-02-09T19:50:29.373Z,9.10
2019-02-09T19:52:58.256Z,9.20
2019-02-09T19:55:36.102Z,9.20
2019-02-09T19:58:06.035Z,9.20
2019-02-09T20:00:40.576Z,9.20
2019-02-09T20:03:09.519Z,9.20
2019-02-09T20:05:38.156Z,9.20
2019-02-09T20:08:08.168Z,9.20
2019-02-09T20:10:40.705Z,9.20
2019-02-09T20:13:12.300Z,9.20
2019-02-09T20:15:40.988Z,9.20
2019-02-09T20:18:10.229Z,9.20
2019-02-09T20:20:46.516Z,9.10
2019-02-09T20:23:09.479Z,9.10
2019-02-09T20:25:38.094Z,9.10
2019-02-09T20:28:06.963Z,9.10
2019-02-09T20:30:40.500Z,9.00
2019-02-09T20:33:09.171Z,9.10
2019-02-09T20:35:37.894Z,9.10
2019-02-09T20:38:07.989Z,9.10
2019-02-09T20:40:45.124Z,9.00
2019-02-09T20:43:15.960Z,9.00
2019-02-09T20:45:44.928Z,9.00
2019-02-09T20:48:13.809Z,9.00
2019-02-09T20:50:42.675Z,9.00
2019-02-09T20:53:11.462Z,9.00
2019-02-09T20:55:40.263Z,9.00
2019-02-09T20:58:10.360Z,9.00
2019-02-09T21:00:38.929Z,9.00
2019-02-09T21:03:07.897Z,8.90
2019-02-09T21:05:37.033Z,9.00
2019-02-09T21:08:06.186Z,9.00
2019-02-09T21:10:40.414Z,9.00
2019-02-09T21:13:09.318Z,9.00
2019-02-09T21:15:37.992Z,8.90
2019-02-09T21:18:07.698Z,9.00
2019-02-09T21:20:36.462Z,9.00
2019-02-09T21:23:05.742Z,8.90
2019-02-09T21:25:42.815Z,8.90
2019-02-09T21:28:12.279Z,8.90
2019-02-09T21:30:40.991Z,8.90
2019-02-09T21:33:09.676Z,8.90
2019-02-09T21:35:43.700Z,8.90
2019-02-09T21:38:08.563Z,8.90
2019-02-09T21:40:37.389Z,8.90
2019-02-09T21:43:06.412Z,8.90
2019-02-09T21:45:44.857Z,8.80
2019-02-09T21:48:06.815Z,8.90
2019-02-09T21:50:39.162Z,8.90
2019-02-09T21:53:08.792Z,8.90
2019-02-09T21:55:37.507Z,9.00
2019-02-09T21:58:07.820Z,9.00
2019-02-09T22:00:44.642Z,9.00
2019-02-09T22:03:15.237Z,9.00
2019-02-09T22:05:51.515Z,9.10
2019-02-09T22:08:19.696Z,9.10
2019-02-09T22:10:51.557Z,9.10
2019-02-09T22:13:24.774Z,9.10
2019-02-09T22:15:55.516Z,9.10
2019-02-09T22:18:24.594Z,9.10
2019-02-09T22:20:53.546Z,9.10
2019-02-09T22:23:22.703Z,9.10
2019-02-09T22:25:52.181Z,9.10
2019-02-09T22:28:22.721Z,9.20
2019-02-09T22:30:51.623Z,9.20
2019-02-09T22:33:24.582Z,9.20
2019-02-09T22:35:59.646Z,9.20
2019-02-09T22:38:24.981Z,9.10
2019-02-09T22:40:53.491Z,9.10
2019-02-09T22:43:22.046Z,9.10
2019-02-09T22:45:50.546Z,9.10
2019-02-09T22:48:19.002Z,9.10
2019-02-09T22:50:48.665Z,9.20
2019-02-09T22:53:17.309Z,9.20
2019-02-09T22:55:45.960Z,9.10
2019-02-09T22:58:14.747Z,9.10
2019-02-09T23:01:00.919Z,9.10
2019-02-09T23:03:35.396Z,9.10
2019-02-09T23:06:21.539Z,9.20
2019-02-09T23:08:52.592Z,9.20
2019-02-09T23:11:21.138Z,9.20
2019-02-09T23:13:49.966Z,9.20
2019-02-09T23:16:18.409Z,9.20
2019-02-09T23:18:46.885Z,9.20
2019-02-09T23:21:15.425Z,9.20
2019-02-09T23:23:44.066Z,9.20
2019-02-09T23:26:12.604Z,9.20
2019-02-09T23:28:41.053Z,9.20
2019-02-09T23:31:09.511Z,9.30
2019-02-09T23:33:37.977Z,9.30
2019-02-09T23:36:06.508Z,9.30
2019-02-09T23:38:34.984Z,9.30
2019-02-09T23:41:03.495Z,9.30
2019-02-09T23:43:32.430Z,9.30
2019-02-09T23:46:01.275Z,9.30
2019-02-09T23:48:29.803Z,9.30
2019-02-09T23:50:58.697Z,9.30
2019-02-09T23:53:27.229Z,9.30
2019-02-09T23:55:55.815Z,9.30
2019-02-09T23:58:24.369Z,9.30
